createdAt,value
2018-08-03T07:57:19.147Z,3.5
2018-08-03T07:57:33.489Z,3.7
2018-08-03T07:57:48.183Z,3.6
2018-08-03T07:58:03.386Z,3.4
2018-08-03T07:58:17.654Z,3.3
2018-08-03T07:58:31.952Z,3.4
2018-08-03T07:58:46.266Z,3.4
2018-08-03T07:59:00.611Z,3.3
2018-08-03T07:59:14.872Z,3.6
2018-08-03T07:59:29.167Z,3.9
2018-08-03T07:59:43.436Z,3.8
2018-08-03T07:59:57.797Z,3.9
2018-08-03T08:00:12.095Z,3.9
2018-08-03T08:00:26.503Z,3.5
2018-08-03T08:00:41.074Z,3.6
2018-08-03T08:00:55.408Z,3.8
2018-08-03T08:01:09.728Z,3.8
2018-08-03T08:01:24.008Z,3.7
2018-08-03T08:01:38.572Z,3.8
2018-08-03T08:01:52.924Z,3.7
2018-08-03T08:02:08.214Z,3.4
2018-08-03T08:02:22.612Z,3.4
2018-08-03T08:02:36.940Z,3.8
2018-08-03T08:02:51.257Z,4.1
2018-08-03T08:03:05.569Z,3.8
2018-08-03T08:03:19.949Z,3.8
2018-08-03T08:03:34.248Z,3.9
2018-08-03T08:03:48.589Z,4.1
2018-08-03T08:04:02.946Z,4
2018-08-03T08:04:17.295Z,4
2018-08-03T08:04:31.657Z,4.1
2018-08-03T08:04:45.972Z,3.8
2018-08-03T08:05:00.272Z,3.9
2018-08-03T08:05:14.577Z,4
2018-08-03T08:05:28.875Z,3.7
2018-08-03T08:05:43.156Z,3.6
2018-08-03T08:05:57.475Z,3.6
2018-08-03T08:06:11.774Z,4.2
2018-08-03T08:06:26.075Z,4
2018-08-03T08:06:40.368Z,3.8
2018-08-03T08:06:54.651Z,3.7
2018-08-03T08:07:08.795Z,3.7
2018-08-03T08:07:22.986Z,3.6
2018-08-03T08:07:37.252Z,3.5
2018-08-03T08:07:51.500Z,4.8
2018-08-03T08:08:05.701Z,4.9
2018-08-03T08:08:19.810Z,3.9
2018-08-03T08:08:34.062Z,3.8
2018-08-03T08:08:48.278Z,3.3
2018-08-03T08:09:02.397Z,3.5
2018-08-03T08:09:16.550Z,3.6
2018-08-03T08:09:30.714Z,3.2
2018-08-03T08:09:45.051Z,3
2018-08-03T08:10:17.177Z,3.3
2018-08-03T08:10:31.380Z,3.2
2018-08-03T08:10:45.485Z,3.3
2018-08-03T08:10:59.613Z,3.4
2018-08-03T08:11:13.663Z,3.2
2018-08-03T08:11:27.807Z,3.1
2018-08-03T08:11:41.968Z,3.1
2018-08-03T08:11:56.058Z,3.1
2018-08-03T08:12:10.231Z,3.2
2018-08-03T08:12:24.434Z,3.2
2018-08-03T08:12:38.677Z,3.4
2018-08-03T08:12:53.058Z,3.6
2018-08-03T08:13:07.370Z,3.3
2018-08-03T08:13:21.639Z,3.3
2018-08-03T08:13:36.609Z,3.5
2018-08-03T08:13:50.919Z,3.3
2018-08-03T08:14:05.192Z,3.1
2018-08-03T08:14:19.502Z,3.2
2018-08-03T08:14:33.747Z,3.4
2018-08-03T08:14:48.030Z,4
2018-08-03T08:15:02.312Z,4
2018-08-03T08:15:16.719Z,3.9
2018-08-03T08:15:30.883Z,3.3
2018-08-03T08:15:45.154Z,3.2
2018-08-03T08:15:59.425Z,3.3
2018-08-03T08:16:13.721Z,3.1
2018-08-03T08:16:27.996Z,3.2
2018-08-03T08:16:42.273Z,3.6
2018-08-03T08:16:56.562Z,3.6
2018-08-03T08:17:10.994Z,3.3
2018-08-03T08:17:25.349Z,3.1
2018-08-03T08:17:39.723Z,3.3
2018-08-03T08:17:54.034Z,2.7
2018-08-03T08:18:08.332Z,1.5
2018-08-03T08:18:23.314Z,1.1
2018-08-03T08:18:37.593Z,1.2
2018-08-03T12:01:44.162Z,2.6
2018-08-03T12:02:04.074Z,2.8
2018-08-03T12:02:27.552Z,2.8
2018-08-03T12:02:47.591Z,2.8
2018-08-03T12:03:11.423Z,2.7
2018-08-03T12:03:31.403Z,3
2018-08-03T12:03:54.470Z,2.6
2018-08-03T12:04:18.028Z,2.6
2018-08-03T12:05:41.012Z,2.7
2018-08-03T12:06:04.524Z,2.7
2018-08-03T12:06:24.664Z,2.7
2018-08-03T12:06:45.350Z,2.7
2018-08-03T12:07:05.233Z,2.9
2018-08-03T12:07:29.168Z,2.5
